createdAt,value
2018-06-02T00:02:22.785Z,98.56
2018-06-02T00:04:51.239Z,98.38
2018-06-02T00:07:19.618Z,98.67
2018-06-02T00:09:48.008Z,98.80
2018-06-02T00:12:16.367Z,98.42
2018-06-02T00:14:44.684Z,99.12
2018-06-02T00:17:13.015Z,99.36
2018-06-02T00:19:41.357Z,99.13
2018-06-02T00:22:09.773Z,99.18
2018-06-02T00:24:38.108Z,98.70
2018-06-02T00:27:06.449Z,98.97
2018-06-02T00:29:34.844Z,98.77
2018-06-02T00:32:03.243Z,98.68
2018-06-02T00:34:31.566Z,98.83
2018-06-02T00:36:59.915Z,98.90
2018-06-02T00:39:28.282Z,98.97
2018-06-02T00:41:56.622Z,98.99
2018-06-02T00:44:24.948Z,99.09
2018-06-02T00:46:53.288Z,99.31
2018-06-02T00:49:21.623Z,99.26
2018-06-02T00:51:49.967Z,98.69
2018-06-02T00:57:17.025Z,99.11
2018-06-02T00:59:45.345Z,98.70
2018-06-02T01:02:13.695Z,98.69
2018-06-02T01:04:42.014Z,99.25
2018-06-02T01:07:10.431Z,98.97
2018-06-02T01:09:38.759Z,99.00
2018-06-02T01:12:07.097Z,99.45
2018-06-02T01:14:35.428Z,98.74
2018-06-02T01:17:03.890Z,98.70
2018-06-02T01:19:32.237Z,98.56
2018-06-02T01:22:00.573Z,98.35
2018-06-02T01:24:28.931Z,97.86
2018-06-02T01:26:57.258Z,98.48
2018-06-02T01:29:25.603Z,96.61
2018-06-02T01:31:53.961Z,96.56
2018-06-02T01:34:22.347Z,97.29
2018-06-02T01:36:50.741Z,96.64
2018-06-02T01:39:19.088Z,97.45
2018-06-02T01:41:47.430Z,96.95
2018-06-02T01:44:15.822Z,96.73
2018-06-02T01:46:44.212Z,96.18
2018-06-02T01:49:12.616Z,96.98
2018-06-02T01:51:40.993Z,98.04
2018-06-02T01:54:09.326Z,96.05
2018-06-02T01:56:37.658Z,96.76
2018-06-02T01:59:05.983Z,96.61
2018-06-02T02:01:34.384Z,95.36
2018-06-02T02:04:02.985Z,95.16
2018-06-02T02:06:31.378Z,96.75
2018-06-02T02:08:59.712Z,96.21
2018-06-02T02:11:28.156Z,95.61
2018-06-02T02:13:56.485Z,96.06
2018-06-02T02:16:24.826Z,95.84
2018-06-02T02:18:53.140Z,95.69
2018-06-02T02:21:21.630Z,95.86
2018-06-02T02:23:50.026Z,96.09
2018-06-02T02:26:18.358Z,96.50
2018-06-02T02:28:46.695Z,95.71
2018-06-02T02:31:15.099Z,96.35
2018-06-02T02:33:43.501Z,96.00
2018-06-02T02:36:11.844Z,96.54
2018-06-02T02:38:40.174Z,96.13
2018-06-02T02:41:08.559Z,96.00
2018-06-02T02:43:36.892Z,96.59
2018-06-02T02:46:05.239Z,96.63
2018-06-02T02:48:33.555Z,96.28
2018-06-02T02:51:01.946Z,96.18
2018-06-02T02:53:30.262Z,96.31
2018-06-02T02:55:58.604Z,96.61
2018-06-02T02:58:26.942Z,96.27
2018-06-02T03:00:55.300Z,96.48
2018-06-02T03:03:23.696Z,96.52
2018-06-02T03:05:52.022Z,96.81
2018-06-02T03:08:20.362Z,96.94
2018-06-02T03:10:48.701Z,96.76
2018-06-02T03:13:17.039Z,97.06
2018-06-02T03:15:45.382Z,96.84
2018-06-02T03:18:13.748Z,96.44
2018-06-02T03:20:42.109Z,96.41
2018-06-02T03:23:10.439Z,96.48
2018-06-02T03:25:38.759Z,96.55
2018-06-02T03:28:07.190Z,96.68
2018-06-02T03:30:35.516Z,96.32
2018-06-02T03:33:03.844Z,96.42
2018-06-02T03:35:32.276Z,95.54
2018-06-02T03:38:00.609Z,95.60
2018-06-02T03:40:28.958Z,95.41
2018-06-02T03:42:57.311Z,95.11
2018-06-02T03:45:25.636Z,94.61
2018-06-02T03:47:53.968Z,94.25
2018-06-02T03:50:22.354Z,94.57
2018-06-02T03:52:50.709Z,94.91
2018-06-02T03:55:19.062Z,94.15
2018-06-02T03:57:47.414Z,93.92
2018-06-02T04:00:15.774Z,93.04
2018-06-02T04:02:44.218Z,93.36
2018-06-02T04:05:12.914Z,93.38
2018-06-02T04:07:41.282Z,93.04
2018-06-02T04:10:09.676Z,92.48
2018-06-02T04:12:38.066Z,92.30
2018-06-02T04:15:06.390Z,92.15
2018-06-02T04:17:34.747Z,92.84
2018-06-02T04:20:03.127Z,92.24
2018-06-02T04:22:31.549Z,92.13
2018-06-02T04:24:59.930Z,92.26
2018-06-02T04:27:28.246Z,91.82
2018-06-02T04:29:56.593Z,91.34
2018-06-02T04:32:24.906Z,91.27
2018-06-02T04:34:53.287Z,91.00
2018-06-02T04:37:21.624Z,90.98
2018-06-02T04:39:49.976Z,91.14
2018-06-02T04:42:18.320Z,90.03
2018-06-02T04:44:46.634Z,89.31
2018-06-02T04:47:14.985Z,88.72
2018-06-02T04:49:43.301Z,88.35
2018-06-02T04:52:11.645Z,88.31
2018-06-02T04:54:40.026Z,87.40
2018-06-02T04:57:08.387Z,88.51
2018-06-02T04:59:36.706Z,88.13
2018-06-02T05:02:05.103Z,87.60
2018-06-02T05:04:33.414Z,86.94
2018-06-02T05:07:01.757Z,86.34
2018-06-02T05:09:30.061Z,86.67
2018-06-02T05:11:58.450Z,86.05
2018-06-02T05:14:26.782Z,86.45
2018-06-02T05:16:55.151Z,86.23
2018-06-02T05:19:23.480Z,85.73
2018-06-02T05:21:51.835Z,84.41
2018-06-02T05:24:20.231Z,80.86
2018-06-02T05:26:48.571Z,81.24
2018-06-02T05:29:16.925Z,81.93
2018-06-02T05:31:45.327Z,81.94
2018-06-02T05:34:14.456Z,79.89
2018-06-02T05:36:42.766Z,80.56
2018-06-02T05:39:11.127Z,80.10
2018-06-02T05:41:39.442Z,81.12
2018-06-02T05:44:08.904Z,80.73
2018-06-02T05:46:37.323Z,77.25
2018-06-02T05:49:05.650Z,79.27
2018-06-02T05:51:34.058Z,78.21
2018-06-02T05:54:02.411Z,78.54
2018-06-02T05:56:30.801Z,79.11
2018-06-02T05:58:59.181Z,77.69
2018-06-02T06:01:27.487Z,77.72
2018-06-02T06:03:55.812Z,75.17
2018-06-02T06:06:24.304Z,78.51
2018-06-02T06:08:52.669Z,76.04
2018-06-02T06:11:21.092Z,76.63
2018-06-02T06:13:49.446Z,74.54
2018-06-02T06:16:17.893Z,74.02
2018-06-02T06:18:46.569Z,74.65
2018-06-02T06:21:14.979Z,71.96
2018-06-02T06:23:48.095Z,74.65
2018-06-02T06:26:16.434Z,72.75
2018-06-02T06:28:44.791Z,72.71
2018-06-02T06:31:13.188Z,73.17
2018-06-02T06:33:41.503Z,73.62
2018-06-02T06:36:09.855Z,72.98
2018-06-02T06:38:38.197Z,72.86
2018-06-02T06:41:06.574Z,71.97
2018-06-02T06:43:34.912Z,71.29
2018-06-02T06:46:03.224Z,73.70
2018-06-02T06:48:31.530Z,71.48
2018-06-02T06:50:59.935Z,72.73
2018-06-02T06:53:28.286Z,71.53
2018-06-02T06:55:56.607Z,68.32
2018-06-02T06:58:24.932Z,69.51
2018-06-02T07:00:53.258Z,62.71
2018-06-02T07:03:21.649Z,61.96
2018-06-02T07:05:50.272Z,59.95
2018-06-02T07:08:18.679Z,57.85
2018-06-02T07:10:47.082Z,51.75
2018-06-02T07:13:15.494Z,55.50
2018-06-02T07:15:43.807Z,54.92
2018-06-02T07:18:12.194Z,58.10
2018-06-02T07:20:40.532Z,60.92
2018-06-02T07:23:08.932Z,58.21
2018-06-02T07:25:37.238Z,60.19
2018-06-02T07:28:05.614Z,60.64
2018-06-02T07:30:33.935Z,61.71
2018-06-02T07:33:02.260Z,62.86
2018-06-02T07:35:30.594Z,63.32
2018-06-02T07:37:58.976Z,63.61
2018-06-02T07:40:27.301Z,62.21
2018-06-02T07:42:55.650Z,58.64
2018-06-02T07:45:23.975Z,54.14
2018-06-02T07:47:52.305Z,51.90
2018-06-02T07:50:20.636Z,53.54
2018-06-02T07:52:48.951Z,58.09
2018-06-02T07:55:17.281Z,58.39
2018-06-02T07:57:45.588Z,59.48
2018-06-02T08:00:13.919Z,57.77
2018-06-02T08:02:42.234Z,55.18
2018-06-02T08:05:10.578Z,57.41
2018-06-02T08:07:38.898Z,58.69
2018-06-02T08:10:07.231Z,59.77
2018-06-02T08:12:35.807Z,62.12
2018-06-02T08:15:04.140Z,58.90
2018-06-02T08:17:35.382Z,60.66
2018-06-02T08:20:03.709Z,63.08
2018-06-02T08:22:32.081Z,63.01
2018-06-02T08:25:00.474Z,61.04
2018-06-02T08:27:28.880Z,63.21
2018-06-02T08:29:57.256Z,61.79
2018-06-02T08:32:25.594Z,62.00
2018-06-02T08:34:54.064Z,62.60
2018-06-02T08:37:22.390Z,61.84
2018-06-02T08:39:50.748Z,61.52
2018-06-02T08:42:19.056Z,61.96
2018-06-02T08:44:47.422Z,61.69
2018-06-02T08:47:15.740Z,62.03
2018-06-02T08:49:44.054Z,61.12
2018-06-02T08:52:12.490Z,61.31
2018-06-02T08:54:40.801Z,58.41
2018-06-02T08:57:09.128Z,58.45
2018-06-02T08:59:37.443Z,58.77
2018-06-02T09:02:05.854Z,59.67
2018-06-02T09:04:34.204Z,58.85
2018-06-02T09:07:02.533Z,60.26
2018-06-02T09:09:31.021Z,61.42
2018-06-02T09:11:59.444Z,60.72
2018-06-02T09:14:27.789Z,62.91
2018-06-02T09:16:56.237Z,62.74
2018-06-02T09:19:24.603Z,63.97
2018-06-02T09:21:52.926Z,62.84
2018-06-02T09:24:21.233Z,64.03
2018-06-02T09:26:49.581Z,63.47
2018-06-02T09:29:17.897Z,65.24
2018-06-02T09:31:46.269Z,64.22
2018-06-02T09:34:14.596Z,63.63
2018-06-02T09:36:42.943Z,64.66
2018-06-02T09:39:11.514Z,66.01
2018-06-02T09:41:39.812Z,64.50
2018-06-02T09:44:08.154Z,65.71
2018-06-02T09:46:36.501Z,64.48
2018-06-02T09:49:04.945Z,63.99
2018-06-02T09:51:33.700Z,61.60
2018-06-02T09:54:02.127Z,62.50
2018-06-02T09:56:37.234Z,61.68
2018-06-02T09:59:05.654Z,60.66
2018-06-02T10:01:34.031Z,61.17
2018-06-02T10:04:02.378Z,59.08
2018-06-02T10:06:30.708Z,60.24
2018-06-02T10:08:59.034Z,61.20
2018-06-02T10:11:27.348Z,60.38
2018-06-02T10:13:55.678Z,61.52
2018-06-02T10:16:24.000Z,60.05
2018-06-02T10:18:52.644Z,61.02
2018-06-02T10:21:21.050Z,62.09
2018-06-02T10:23:49.495Z,61.93
2018-06-02T10:28:56.664Z,62.14
2018-06-02T10:31:25.086Z,61.39
2018-06-02T10:33:53.452Z,59.89
2018-06-02T10:36:21.789Z,63.30
2018-06-02T10:38:50.139Z,61.95
2018-06-02T10:41:18.476Z,60.01
2018-06-02T10:43:46.914Z,59.77
2018-06-02T10:46:15.254Z,62.18
2018-06-02T10:48:43.585Z,62.82
2018-06-02T10:51:11.924Z,62.46
2018-06-02T10:53:40.238Z,61.43
2018-06-02T10:56:08.564Z,61.31
2018-06-02T10:58:36.884Z,60.20
2018-06-02T11:01:05.280Z,62.84
2018-06-02T11:03:33.962Z,62.37
2018-06-02T11:06:02.368Z,63.73
2018-06-02T11:08:30.691Z,62.87
2018-06-02T11:10:59.065Z,61.76
2018-06-02T11:13:27.411Z,62.18
2018-06-02T11:15:55.733Z,62.20
2018-06-02T11:18:24.151Z,60.29
2018-06-02T11:20:52.486Z,60.50
2018-06-02T11:26:10.513Z,62.35
2018-06-02T11:28:38.828Z,63.52
2018-06-02T11:31:07.195Z,65.57
2018-06-02T11:33:35.545Z,63.99
2018-06-02T11:36:04.081Z,64.75
2018-06-02T11:38:32.413Z,64.21
2018-06-02T11:41:00.977Z,63.96
2018-06-02T11:43:29.334Z,62.50
2018-06-02T11:45:57.667Z,61.71
2018-06-02T11:48:26.018Z,63.48
2018-06-02T11:50:54.343Z,62.42
2018-06-02T11:53:22.682Z,62.81
2018-06-02T11:55:51.009Z,62.25
2018-06-02T11:58:19.390Z,63.25
2018-06-02T12:00:47.741Z,62.79
2018-06-02T12:03:16.157Z,63.45
2018-06-02T12:05:44.493Z,64.13
2018-06-02T12:08:12.892Z,65.85
2018-06-02T12:10:41.298Z,60.98
2018-06-02T12:13:09.631Z,59.65
2018-06-02T12:15:37.959Z,60.79
2018-06-02T12:18:06.304Z,56.88
2018-06-02T12:20:34.641Z,58.02
2018-06-02T12:23:02.980Z,57.73
2018-06-02T12:25:31.299Z,55.51
2018-06-02T12:27:59.661Z,55.52
2018-06-02T12:30:27.984Z,56.69
2018-06-02T12:32:56.319Z,55.77
2018-06-02T12:35:24.658Z,57.78
2018-06-02T12:37:53.187Z,57.47
2018-06-02T12:40:21.516Z,57.82
2018-06-02T12:42:49.843Z,59.11
2018-06-02T12:45:18.324Z,56.94
2018-06-02T12:47:46.732Z,55.56
2018-06-02T12:50:15.185Z,59.17
2018-06-02T12:52:43.536Z,56.85
2018-06-02T12:55:11.969Z,56.42
2018-06-02T12:57:40.311Z,54.58
2018-06-02T13:00:08.644Z,54.82
2018-06-02T13:02:36.979Z,52.96
2018-06-02T13:05:05.367Z,51.67
2018-06-02T13:07:33.702Z,54.16
2018-06-02T13:10:02.111Z,53.75
2018-06-02T13:12:30.459Z,49.42
2018-06-02T13:14:58.819Z,51.15
2018-06-02T13:17:27.177Z,53.79
2018-06-02T13:19:55.477Z,51.85
2018-06-02T13:22:23.806Z,54.25
2018-06-02T13:24:52.218Z,54.90
2018-06-02T13:27:20.554Z,56.18
2018-06-02T13:29:48.916Z,57.12
2018-06-02T13:32:17.261Z,56.00
2018-06-02T13:34:45.943Z,56.51
2018-06-02T13:37:14.340Z,56.79
2018-06-02T13:39:42.652Z,57.25
2018-06-02T13:42:10.996Z,55.48
2018-06-02T13:44:39.368Z,55.17
2018-06-02T13:47:07.718Z,54.54
2018-06-02T13:49:36.379Z,56.33
2018-06-02T13:52:04.691Z,56.25
2018-06-02T13:54:33.124Z,57.33
2018-06-02T13:57:01.444Z,57.27
2018-06-02T13:59:29.797Z,54.45
2018-06-02T14:01:58.195Z,49.36
2018-06-02T14:04:26.555Z,52.48
2018-06-02T14:06:54.881Z,51.70
2018-06-02T14:09:23.197Z,50.36
2018-06-02T14:11:51.562Z,47.42
2018-06-02T14:16:58.944Z,51.17
2018-06-02T14:19:27.303Z,50.95
2018-06-02T14:21:55.631Z,53.43
2018-06-02T14:24:23.962Z,50.81
2018-06-02T14:26:52.359Z,50.41
2018-06-02T14:29:20.675Z,49.73
2018-06-02T14:31:48.984Z,51.09
2018-06-02T14:34:17.322Z,47.78
2018-06-02T14:36:45.631Z,50.06
2018-06-02T14:39:13.957Z,51.53
2018-06-02T14:41:42.276Z,53.26
2018-06-02T14:44:10.603Z,55.27
2018-06-02T14:46:38.921Z,56.23
2018-06-02T14:49:07.384Z,57.42
2018-06-02T14:51:35.755Z,57.54
2018-06-02T14:54:04.084Z,58.02
2018-06-02T14:56:32.682Z,57.46
2018-06-02T14:59:01.246Z,59.36
2018-06-02T15:01:29.555Z,57.92
2018-06-02T15:03:57.967Z,57.72
2018-06-02T15:06:26.237Z,59.47
2018-06-02T15:08:54.597Z,57.76
2018-06-02T15:11:22.925Z,55.29
2018-06-02T15:13:51.288Z,55.29
2018-06-02T15:16:19.673Z,56.40
2018-06-02T15:18:47.988Z,56.11
2018-06-02T15:21:16.318Z,56.97
2018-06-02T15:23:44.715Z,56.85
2018-06-02T15:26:13.040Z,55.26
2018-06-02T15:28:41.352Z,55.49
2018-06-02T15:31:09.723Z,56.54
2018-06-02T15:33:38.159Z,56.65
2018-06-02T15:36:06.535Z,56.40
2018-06-02T15:38:34.875Z,52.96
2018-06-02T15:41:03.247Z,54.24
2018-06-02T15:43:31.571Z,54.82
2018-06-02T15:46:02.066Z,57.39
2018-06-02T15:48:30.410Z,57.23
2018-06-02T15:50:58.766Z,57.30
2018-06-02T15:53:27.242Z,57.92
2018-06-02T15:55:55.568Z,58.03
2018-06-02T15:58:23.911Z,57.20
2018-06-02T16:00:52.286Z,55.74
2018-06-02T16:03:20.681Z,54.23
2018-06-02T16:05:48.965Z,57.17
2018-06-02T16:08:17.359Z,57.74
2018-06-02T16:10:45.756Z,58.29
2018-06-02T16:13:14.104Z,60.91
2018-06-02T16:15:42.542Z,59.36
2018-06-02T16:18:10.972Z,60.79
2018-06-02T16:20:39.323Z,62.73
2018-06-02T16:23:07.708Z,62.31
2018-06-02T16:25:36.115Z,61.27
2018-06-02T16:28:04.475Z,63.29
2018-06-02T16:30:32.811Z,60.99
2018-06-02T16:33:01.161Z,63.16
2018-06-02T16:35:29.496Z,62.14
2018-06-02T16:37:57.817Z,61.24
2018-06-02T16:40:26.216Z,62.11
2018-06-02T16:42:54.548Z,63.37
2018-06-02T16:45:22.895Z,62.05
2018-06-02T16:47:51.238Z,61.41
2018-06-02T16:50:19.585Z,63.64
2018-06-02T16:52:47.938Z,62.97
2018-06-02T16:55:16.323Z,63.39
2018-06-02T16:57:44.654Z,64.23
2018-06-02T17:00:12.990Z,64.36
2018-06-02T17:02:41.321Z,64.78
2018-06-02T17:05:09.655Z,65.32
2018-06-02T17:07:37.990Z,65.93
2018-06-02T17:10:06.334Z,65.38
2018-06-02T17:12:34.725Z,66.59
2018-06-02T17:15:03.060Z,67.33
2018-06-02T17:17:31.412Z,66.68
2018-06-02T17:19:59.879Z,65.95
2018-06-02T17:22:28.156Z,65.78
2018-06-02T17:24:56.487Z,65.61
2018-06-02T17:27:24.828Z,64.93
2018-06-02T17:29:53.317Z,64.52
2018-06-02T17:32:21.650Z,65.67
2018-06-02T17:34:49.978Z,66.34
2018-06-02T17:37:18.330Z,67.42
2018-06-02T17:39:46.651Z,67.67
2018-06-02T17:42:15.009Z,67.81
2018-06-02T17:44:43.339Z,68.03
2018-06-02T17:47:11.698Z,68.58
2018-06-02T17:49:40.018Z,68.37
2018-06-02T17:52:08.352Z,69.01
2018-06-02T17:54:36.693Z,69.22
2018-06-02T17:57:05.038Z,69.58
2018-06-02T17:59:33.363Z,69.54
2018-06-02T18:02:01.735Z,70.05
2018-06-02T18:04:30.052Z,69.41
2018-06-02T18:06:58.379Z,69.24
2018-06-02T18:09:26.719Z,69.24
2018-06-02T18:11:55.064Z,69.85
2018-06-02T18:14:23.395Z,69.56
2018-06-02T18:16:51.726Z,70.56
2018-06-02T18:19:20.073Z,70.65
2018-06-02T18:21:48.463Z,71.10
2018-06-02T18:24:16.810Z,71.06
2018-06-02T18:26:45.146Z,71.53
2018-06-02T18:29:13.542Z,71.91
2018-06-02T18:31:41.882Z,72.65
2018-06-02T18:34:10.220Z,72.70
2018-06-02T18:36:38.577Z,73.38
2018-06-02T18:39:06.900Z,73.08
2018-06-02T18:41:35.236Z,74.72
2018-06-02T18:44:03.570Z,74.46
2018-06-02T18:46:31.962Z,74.28
2018-06-02T18:49:00.281Z,74.75
2018-06-02T18:51:28.616Z,75.18
2018-06-02T18:53:56.997Z,75.81
2018-06-02T18:56:25.347Z,75.29
2018-06-02T18:58:53.779Z,75.49
2018-06-02T19:01:22.117Z,75.96
2018-06-02T19:03:50.460Z,75.88
2018-06-02T19:06:18.851Z,76.46
2018-06-02T19:08:47.251Z,76.68
2018-06-02T19:11:15.742Z,76.95
2018-06-02T19:13:44.361Z,76.06
2018-06-02T19:16:12.759Z,75.56
2018-06-02T19:18:41.089Z,76.69
2018-06-02T19:21:09.437Z,77.35
2018-06-02T19:23:37.794Z,77.06
2018-06-02T19:26:06.313Z,77.79
2018-06-02T19:28:34.815Z,78.39
2018-06-02T19:31:03.170Z,78.41
2018-06-02T19:33:31.494Z,78.38
2018-06-02T19:35:59.831Z,78.78
2018-06-02T19:38:28.167Z,78.51
2018-06-02T19:40:56.569Z,78.31
2018-06-02T19:43:24.942Z,77.69
2018-06-02T19:45:53.274Z,77.73
2018-06-02T19:48:21.608Z,77.69
2018-06-02T19:50:49.941Z,78.45
2018-06-02T19:53:18.304Z,76.78
2018-06-02T19:55:46.627Z,77.53
2018-06-02T19:58:14.960Z,77.46
2018-06-02T20:00:43.462Z,77.62
2018-06-02T20:03:11.790Z,77.18
2018-06-02T20:05:40.139Z,78.05
2018-06-02T20:08:08.483Z,77.97
2018-06-02T20:10:36.809Z,78.47
2018-06-02T20:13:05.133Z,78.20
2018-06-02T20:15:33.459Z,78.23
2018-06-02T20:18:01.807Z,78.04
2018-06-02T20:20:30.135Z,78.60
2018-06-02T20:22:58.473Z,78.28
2018-06-02T20:25:26.789Z,78.39
2018-06-02T20:27:55.125Z,78.64
2018-06-02T20:30:23.473Z,78.98
2018-06-02T20:32:51.799Z,78.63
2018-06-02T20:35:20.136Z,78.68
2018-06-02T20:37:48.461Z,79.13
2018-06-02T20:40:16.848Z,78.51
2018-06-02T20:42:45.198Z,78.52
2018-06-02T20:45:13.531Z,78.53
2018-06-02T20:47:41.907Z,79.41
2018-06-02T20:50:10.219Z,79.52
2018-06-02T20:52:38.566Z,79.00
2018-06-02T20:55:06.904Z,78.74
2018-06-02T20:57:35.244Z,77.81
2018-06-02T21:00:03.583Z,77.78
2018-06-02T21:02:31.931Z,79.00
2018-06-02T21:05:00.263Z,78.53
2018-06-02T21:07:28.609Z,77.57
2018-06-02T21:09:56.945Z,77.13
2018-06-02T21:12:25.283Z,77.37
2018-06-02T21:14:53.604Z,78.09
2018-06-02T21:17:21.969Z,77.28
2018-06-02T21:19:50.291Z,78.06
2018-06-02T21:22:18.660Z,77.56
2018-06-02T21:24:46.990Z,76.97
2018-06-02T21:27:15.325Z,77.47
2018-06-02T21:29:43.673Z,77.66
2018-06-02T21:32:12.008Z,77.63
2018-06-02T21:34:40.340Z,76.76
2018-06-02T21:37:08.697Z,77.74
2018-06-02T21:39:37.015Z,77.35
2018-06-02T21:42:05.367Z,77.77
2018-06-02T21:44:33.685Z,77.68
2018-06-02T21:47:02.078Z,78.73
2018-06-02T21:49:30.456Z,78.25
2018-06-02T21:51:58.737Z,78.69
2018-06-02T21:54:27.092Z,78.93
2018-06-02T21:56:55.438Z,79.29
2018-06-02T21:59:23.789Z,78.85
2018-06-02T22:01:52.147Z,79.12
2018-06-02T22:04:20.484Z,79.65
2018-06-02T22:06:48.835Z,79.11
2018-06-02T22:09:17.153Z,79.52
2018-06-02T22:11:45.494Z,78.98
2018-06-02T22:14:13.835Z,79.03
2018-06-02T22:16:42.183Z,79.21
2018-06-02T22:19:10.556Z,80.07
2018-06-02T22:21:38.931Z,80.04
2018-06-02T22:24:07.400Z,79.65
2018-06-02T22:26:35.791Z,79.90
2018-06-02T22:29:04.115Z,80.52
2018-06-02T22:31:32.478Z,80.93
2018-06-02T22:34:00.859Z,80.37
2018-06-02T22:36:29.273Z,80.61
2018-06-02T22:38:57.599Z,80.49
2018-06-02T22:41:25.959Z,80.47
2018-06-02T22:43:54.323Z,80.42
2018-06-02T22:46:22.736Z,80.34
2018-06-02T22:48:51.067Z,81.14
2018-06-02T22:51:21.118Z,81.45
2018-06-02T22:56:28.912Z,82.10
2018-06-02T22:58:57.250Z,81.61
2018-06-02T23:01:25.665Z,82.48
2018-06-02T23:03:54.018Z,82.04
2018-06-02T23:06:22.466Z,82.76
2018-06-02T23:08:50.829Z,82.61
2018-06-02T23:11:19.204Z,82.57
2018-06-02T23:13:47.547Z,82.95
2018-06-02T23:16:15.881Z,82.55
2018-06-02T23:18:44.235Z,83.17
2018-06-02T23:21:12.640Z,83.74
2018-06-02T23:23:40.992Z,84.04
2018-06-02T23:26:09.381Z,83.43
2018-06-02T23:28:37.747Z,83.72
2018-06-02T23:31:06.199Z,84.30
2018-06-02T23:33:34.605Z,84.34
2018-06-02T23:36:02.953Z,85.10
2018-06-02T23:38:31.437Z,85.42
2018-06-02T23:40:59.767Z,84.96
2018-06-02T23:43:28.222Z,85.11
2018-06-02T23:45:56.559Z,84.88
2018-06-02T23:48:24.924Z,85.51
2018-06-02T23:50:53.300Z,85.48
2018-06-02T23:53:21.688Z,86.16
2018-06-02T23:55:50.000Z,86.05
2018-06-02T23:58:18.369Z,86.43
